sensor_id;sensor_type;location;lat;lon;timestamp;P1;durP1;ratioP1;P2;durP2;ratioP2
45650;SDS011;31365;48.858;8.530;2023-01-09T00:01:50;11.07;;;8.10;;
45650;SDS011;31365;48.858;8.530;2023-01-09T00:04:19;7.30;;;5.32;;
45650;SDS011;31365;48.858;8.530;2023-01-09T00:06:47;2.53;;;1.58;;
45650;SDS011;31365;48.858;8.530;2023-01-09T00:09:19;0.15;;;0.15;;
45650;SDS011;31365;48.858;8.530;2023-01-09T00:11:49;0.70;;;0.40;;
45650;SDS011;31365;48.858;8.530;2023-01-09T00:14:18;0.45;;;0.43;;
45650;SDS011;31365;48.858;8.530;2023-01-09T00:16:49;0.17;;;0.10;;
45650;SDS011;31365;48.858;8.530;2023-01-09T00:19:21;0.10;;;0.10;;
45650;SDS011;31365;48.858;8.530;2023-01-09T00:21:49;0.28;;;0.28;;
45650;SDS011;31365;48.858;8.530;2023-01-09T00:24:18;1.38;;;1.27;;
45650;SDS011;31365;48.858;8.530;2023-01-09T00:26:46;0.32;;;0.10;;
45650;SDS011;31365;48.858;8.530;2023-01-09T00:29:16;0.05;;;0.05;;
45650;SDS011;31365;48.858;8.530;2023-01-09T00:31:45;0.00;;;0.00;;
45650;SDS011;31365;48.858;8.530;2023-01-09T00:34:15;0.20;;;0.10;;
45650;SDS011;31365;48.858;8.530;2023-01-09T00:36:43;0.05;;;0.05;;
45650;SDS011;31365;48.858;8.530;2023-01-09T00:39:12;0.10;;;0.00;;
45650;SDS011;31365;48.858;8.530;2023-01-09T00:41:42;0.10;;;0.10;;
45650;SDS011;31365;48.858;8.530;2023-01-09T00:44:14;0.10;;;0.10;;
45650;SDS011;31365;48.858;8.530;2023-01-09T00:46:47;0.20;;;0.20;;
45650;SDS011;31365;48.858;8.530;2023-01-09T00:49:22;0.20;;;0.20;;
45650;SDS011;31365;48.858;8.530;2023-01-09T00:51:51;0.10;;;0.10;;
45650;SDS011;31365;48.858;8.530;2023-01-09T00:54:22;0.20;;;0.20;;
45650;SDS011;31365;48.858;8.530;2023-01-09T00:56:51;0.30;;;0.10;;
45650;SDS011;31365;48.858;8.530;2023-01-09T00:59:20;0.03;;;0.03;;
45650;SDS011;31365;48.858;8.530;2023-01-09T01:01:48;0.10;;;0.00;;
45650;SDS011;31365;48.858;8.530;2023-01-09T01:04:17;0.30;;;0.10;;
45650;SDS011;31365;48.858;8.530;2023-01-09T01:07:04;0.60;;;0.10;;
45650;SDS011;31365;48.858;8.530;2023-01-09T01:09:51;1.10;;;0.10;;
45650;SDS011;31365;48.858;8.530;2023-01-09T01:12:20;0.10;;;0.10;;
45650;SDS011;31365;48.858;8.530;2023-01-09T01:14:48;0.45;;;0.00;;
45650;SDS011;31365;48.858;8.530;2023-01-09T01:17:18;0.00;;;0.00;;
45650;SDS011;31365;48.858;8.530;2023-01-09T01:19:47;0.10;;;0.10;;
45650;SDS011;31365;48.858;8.530;2023-01-09T01:22:17;0.10;;;0.08;;
45650;SDS011;31365;48.858;8.530;2023-01-09T01:24:45;0.00;;;0.00;;
45650;SDS011;31365;48.858;8.530;2023-01-09T01:27:15;0.05;;;0.05;;
45650;SDS011;31365;48.858;8.530;2023-01-09T01:29:44;0.30;;;0.10;;
45650;SDS011;31365;48.858;8.530;2023-01-09T01:32:13;0.10;;;0.10;;
45650;SDS011;31365;48.858;8.530;2023-01-09T01:34:41;0.52;;;0.10;;
45650;SDS011;31365;48.858;8.530;2023-01-09T01:37:13;0.00;;;0.00;;
45650;SDS011;31365;48.858;8.530;2023-01-09T01:39:43;0.17;;;0.10;;
45650;SDS011;31365;48.858;8.530;2023-01-09T01:42:12;0.08;;;0.08;;
45650;SDS011;31365;48.858;8.530;2023-01-09T01:47:44;0.20;;;0.10;;
45650;SDS011;31365;48.858;8.530;2023-01-09T01:50:21;0.00;;;0.00;;
45650;SDS011;31365;48.858;8.530;2023-01-09T01:53:01;0.10;;;0.10;;
45650;SDS011;31365;48.858;8.530;2023-01-09T01:55:40;0.38;;;0.22;;
45650;SDS011;31365;48.858;8.530;2023-01-09T01:58:13;0.38;;;0.30;;
45650;SDS011;31365;48.858;8.530;2023-01-09T02:00:43;0.57;;;0.30;;
45650;SDS011;31365;48.858;8.530;2023-01-09T02:03:14;0.50;;;0.20;;
45650;SDS011;31365;48.858;8.530;2023-01-09T02:05:48;0.47;;;0.28;;
45650;SDS011;31365;48.858;8.530;2023-01-09T02:08:17;0.40;;;0.20;;
45650;SDS011;31365;48.858;8.530;2023-01-09T02:10:48;1.00;;;0.20;;
45650;SDS011;31365;48.858;8.530;2023-01-09T02:13:17;0.50;;;0.40;;
45650;SDS011;31365;48.858;8.530;2023-01-09T02:15:54;0.20;;;0.20;;
45650;SDS011;31365;48.858;8.530;2023-01-09T02:18:35;0.20;;;0.20;;
45650;SDS011;31365;48.858;8.530;2023-01-09T02:21:16;0.22;;;0.20;;
45650;SDS011;31365;48.858;8.530;2023-01-09T02:24:03;0.10;;;0.10;;
45650;SDS011;31365;48.858;8.530;2023-01-09T02:26:50;0.93;;;0.35;;
45650;SDS011;31365;48.858;8.530;2023-01-09T02:29:44;0.20;;;0.13;;
45650;SDS011;31365;48.858;8.530;2023-01-09T02:32:52;0.40;;;0.30;;
45650;SDS011;31365;48.858;8.530;2023-01-09T02:35:32;0.30;;;0.30;;
45650;SDS011;31365;48.858;8.530;2023-01-09T02:38:25;0.20;;;0.20;;
45650;SDS011;31365;48.858;8.530;2023-01-09T02:41:04;0.60;;;0.40;;
45650;SDS011;31365;48.858;8.530;2023-01-09T02:43:39;0.60;;;0.30;;
45650;SDS011;31365;48.858;8.530;2023-01-09T02:46:14;0.55;;;0.35;;
45650;SDS011;31365;48.858;8.530;2023-01-09T02:48:48;0.38;;;0.38;;
45650;SDS011;31365;48.858;8.530;2023-01-09T02:51:22;0.20;;;0.20;;
45650;SDS011;31365;48.858;8.530;2023-01-09T02:54:06;0.20;;;0.20;;
45650;SDS011;31365;48.858;8.530;2023-01-09T02:56:57;0.77;;;0.20;;
45650;SDS011;31365;48.858;8.530;2023-01-09T02:59:43;0.50;;;0.20;;
45650;SDS011;31365;48.858;8.530;2023-01-09T03:02:35;1.40;;;0.40;;
45650;SDS011;31365;48.858;8.530;2023-01-09T03:05:18;1.88;;;0.50;;
45650;SDS011;31365;48.858;8.530;2023-01-09T03:07:54;0.45;;;0.20;;
45650;SDS011;31365;48.858;8.530;2023-01-09T03:10:31;0.20;;;0.20;;
45650;SDS011;31365;48.858;8.530;2023-01-09T03:13:06;0.20;;;0.20;;
45650;SDS011;31365;48.858;8.530;2023-01-09T03:15:41;0.20;;;0.20;;
45650;SDS011;31365;48.858;8.530;2023-01-09T03:18:17;0.20;;;0.20;;
45650;SDS011;31365;48.858;8.530;2023-01-09T03:20:48;0.20;;;0.20;;
45650;SDS011;31365;48.858;8.530;2023-01-09T03:23:18;0.75;;;0.20;;
45650;SDS011;31365;48.858;8.530;2023-01-09T03:25:46;0.10;;;0.10;;
45650;SDS011;31365;48.858;8.530;2023-01-09T03:28:17;0.75;;;0.22;;
45650;SDS011;31365;48.858;8.530;2023-01-09T03:30:53;0.20;;;0.10;;
45650;SDS011;31365;48.858;8.530;2023-01-09T03:33:23;0.20;;;0.20;;
45650;SDS011;31365;48.858;8.530;2023-01-09T03:35:52;0.10;;;0.10;;
45650;SDS011;31365;48.858;8.530;2023-01-09T03:38:20;0.20;;;0.20;;
45650;SDS011;31365;48.858;8.530;2023-01-09T03:40:49;0.33;;;0.10;;
45650;SDS011;31365;48.858;8.530;2023-01-09T03:43:17;0.80;;;0.10;;
45650;SDS011;31365;48.858;8.530;2023-01-09T03:45:46;0.27;;;0.20;;
45650;SDS011;31365;48.858;8.530;2023-01-09T03:48:15;0.30;;;0.27;;
45650;SDS011;31365;48.858;8.530;2023-01-09T03:50:46;0.20;;;0.10;;
45650;SDS011;31365;48.858;8.530;2023-01-09T03:53:15;0.20;;;0.13;;
45650;SDS011;31365;48.858;8.530;2023-01-09T03:55:45;0.20;;;0.10;;
45650;SDS011;31365;48.858;8.530;2023-01-09T03:58:16;0.10;;;0.10;;
45650;SDS011;31365;48.858;8.530;2023-01-09T04:00:47;0.83;;;0.40;;
45650;SDS011;31365;48.858;8.530;2023-01-09T04:03:17;0.87;;;0.30;;
45650;SDS011;31365;48.858;8.530;2023-01-09T04:05:49;0.47;;;0.37;;
45650;SDS011;31365;48.858;8.530;2023-01-09T04:08:18;0.63;;;0.50;;
45650;SDS011;31365;48.858;8.530;2023-01-09T04:10:48;0.67;;;0.20;;
45650;SDS011;31365;48.858;8.530;2023-01-09T04:13:19;1.60;;;0.20;;
45650;SDS011;31365;48.858;8.530;2023-01-09T04:15:47;0.43;;;0.20;;
45650;SDS011;31365;48.858;8.530;2023-01-09T04:18:16;0.60;;;0.40;;
45650;SDS011;31365;48.858;8.530;2023-01-09T04:20:45;0.37;;;0.20;;
45650;SDS011;31365;48.858;8.530;2023-01-09T04:23:16;1.67;;;0.40;;
45650;SDS011;31365;48.858;8.530;2023-01-09T04:25:44;0.50;;;0.17;;
45650;SDS011;31365;48.858;8.530;2023-01-09T04:28:15;0.57;;;0.57;;
45650;SDS011;31365;48.858;8.530;2023-01-09T04:30:43;0.10;;;0.10;;
45650;SDS011;31365;48.858;8.530;2023-01-09T04:33:12;2.33;;;0.47;;
45650;SDS011;31365;48.858;8.530;2023-01-09T04:35:40;0.47;;;0.40;;
45650;SDS011;31365;48.858;8.530;2023-01-09T04:38:09;0.47;;;0.40;;
45650;SDS011;31365;48.858;8.530;2023-01-09T04:40:40;0.97;;;0.60;;
45650;SDS011;31365;48.858;8.530;2023-01-09T04:43:09;1.47;;;0.40;;
45650;SDS011;31365;48.858;8.530;2023-01-09T04:45:38;1.23;;;0.70;;
45650;SDS011;31365;48.858;8.530;2023-01-09T04:48:06;0.87;;;0.33;;
45650;SDS011;31365;48.858;8.530;2023-01-09T04:50:35;1.23;;;0.70;;
45650;SDS011;31365;48.858;8.530;2023-01-09T04:53:03;0.70;;;0.60;;
45650;SDS011;31365;48.858;8.530;2023-01-09T04:55:32;1.23;;;0.90;;
45650;SDS011;31365;48.858;8.530;2023-01-09T04:58:02;2.30;;;0.90;;
45650;SDS011;31365;48.858;8.530;2023-01-09T05:00:30;2.00;;;1.10;;
45650;SDS011;31365;48.858;8.530;2023-01-09T05:02:59;1.23;;;1.13;;
45650;SDS011;31365;48.858;8.530;2023-01-09T05:05:28;2.07;;;1.17;;
45650;SDS011;31365;48.858;8.530;2023-01-09T05:07:57;2.17;;;1.07;;
45650;SDS011;31365;48.858;8.530;2023-01-09T05:10:25;3.47;;;1.00;;
45650;SDS011;31365;48.858;8.530;2023-01-09T05:12:53;0.70;;;0.70;;
45650;SDS011;31365;48.858;8.530;2023-01-09T05:15:23;1.80;;;0.60;;
45650;SDS011;31365;48.858;8.530;2023-01-09T05:17:53;2.90;;;0.80;;
45650;SDS011;31365;48.858;8.530;2023-01-09T05:20:22;2.57;;;0.83;;
45650;SDS011;31365;48.858;8.530;2023-01-09T05:22:50;4.20;;;1.07;;
45650;SDS011;31365;48.858;8.530;2023-01-09T05:25:19;2.80;;;2.00;;
45650;SDS011;31365;48.858;8.530;2023-01-09T05:27:47;2.87;;;1.80;;
45650;SDS011;31365;48.858;8.530;2023-01-09T05:30:16;1.70;;;1.10;;
45650;SDS011;31365;48.858;8.530;2023-01-09T05:32:46;2.63;;;1.23;;
45650;SDS011;31365;48.858;8.530;2023-01-09T05:35:14;1.80;;;0.73;;
45650;SDS011;31365;48.858;8.530;2023-01-09T05:37:42;1.90;;;0.83;;
45650;SDS011;31365;48.858;8.530;2023-01-09T05:40:11;1.50;;;0.90;;
45650;SDS011;31365;48.858;8.530;2023-01-09T05:42:40;1.70;;;0.87;;
45650;SDS011;31365;48.858;8.530;2023-01-09T05:45:10;1.73;;;1.10;;
45650;SDS011;31365;48.858;8.530;2023-01-09T05:47:38;1.70;;;1.00;;
45650;SDS011;31365;48.858;8.530;2023-01-09T05:50:09;2.27;;;1.10;;
45650;SDS011;31365;48.858;8.530;2023-01-09T05:52:40;1.73;;;0.90;;
45650;SDS011;31365;48.858;8.530;2023-01-09T06:28:41;2.63;;;1.17;;
45650;SDS011;31365;48.858;8.530;2023-01-09T06:36:25;5.40;;;1.53;;
45650;SDS011;31365;48.858;8.530;2023-01-09T06:38:53;2.93;;;1.20;;
45650;SDS011;31365;48.858;8.530;2023-01-09T06:41:21;3.80;;;1.40;;
45650;SDS011;31365;48.858;8.530;2023-01-09T06:43:51;2.90;;;1.00;;
45650;SDS011;31365;48.858;8.530;2023-01-09T06:46:19;4.90;;;1.23;;
45650;SDS011;31365;48.858;8.530;2023-01-09T06:48:48;3.90;;;1.40;;
45650;SDS011;31365;48.858;8.530;2023-01-09T06:51:17;2.07;;;1.17;;
45650;SDS011;31365;48.858;8.530;2023-01-09T06:53:45;3.30;;;1.00;;
45650;SDS011;31365;48.858;8.530;2023-01-09T06:56:14;2.20;;;1.10;;
45650;SDS011;31365;48.858;8.530;2023-01-09T06:58:42;3.23;;;1.37;;
45650;SDS011;31365;48.858;8.530;2023-01-09T07:01:12;3.93;;;1.60;;
45650;SDS011;31365;48.858;8.530;2023-01-09T07:03:40;4.20;;;1.30;;
45650;SDS011;31365;48.858;8.530;2023-01-09T07:06:09;4.00;;;1.50;;
45650;SDS011;31365;48.858;8.530;2023-01-09T07:08:37;2.23;;;1.00;;
45650;SDS011;31365;48.858;8.530;2023-01-09T07:11:06;2.23;;;1.00;;
45650;SDS011;31365;48.858;8.530;2023-01-09T07:13:34;4.87;;;1.67;;
45650;SDS011;31365;48.858;8.530;2023-01-09T07:16:04;5.60;;;2.80;;
45650;SDS011;31365;48.858;8.530;2023-01-09T07:18:35;5.03;;;2.60;;
45650;SDS011;31365;48.858;8.530;2023-01-09T07:21:04;7.93;;;3.20;;
45650;SDS011;31365;48.858;8.530;2023-01-09T07:23:33;3.03;;;1.60;;
45650;SDS011;31365;48.858;8.530;2023-01-09T07:26:02;4.80;;;1.93;;
45650;SDS011;31365;48.858;8.530;2023-01-09T07:28:31;4.23;;;1.77;;
45650;SDS011;31365;48.858;8.530;2023-01-09T07:30:59;4.73;;;1.30;;
45650;SDS011;31365;48.858;8.530;2023-01-09T07:33:30;3.47;;;1.03;;
45650;SDS011;31365;48.858;8.530;2023-01-09T07:36:00;2.80;;;1.43;;
45650;SDS011;31365;48.858;8.530;2023-01-09T07:38:28;3.03;;;0.93;;
45650;SDS011;31365;48.858;8.530;2023-01-09T07:40:57;5.50;;;0.97;;
45650;SDS011;31365;48.858;8.530;2023-01-09T07:43:25;2.37;;;0.97;;
45650;SDS011;31365;48.858;8.530;2023-01-09T07:45:54;3.47;;;1.30;;
45650;SDS011;31365;48.858;8.530;2023-01-09T07:48:22;2.17;;;1.00;;
45650;SDS011;31365;48.858;8.530;2023-01-09T07:50:50;2.50;;;0.80;;
45650;SDS011;31365;48.858;8.530;2023-01-09T07:53:20;3.67;;;0.80;;
45650;SDS011;31365;48.858;8.530;2023-01-09T07:55:48;1.27;;;0.57;;
45650;SDS011;31365;48.858;8.530;2023-01-09T07:58:17;2.47;;;1.40;;
45650;SDS011;31365;48.858;8.530;2023-01-09T08:00:45;3.27;;;0.87;;
45650;SDS011;31365;48.858;8.530;2023-01-09T08:03:13;3.43;;;0.77;;
45650;SDS011;31365;48.858;8.530;2023-01-09T08:05:41;2.70;;;1.27;;
45650;SDS011;31365;48.858;8.530;2023-01-09T08:08:10;14.07;;;8.60;;
45650;SDS011;31365;48.858;8.530;2023-01-09T08:10:41;3.30;;;1.10;;
45650;SDS011;31365;48.858;8.530;2023-01-09T08:13:10;1.77;;;0.80;;
45650;SDS011;31365;48.858;8.530;2023-01-09T08:15:38;1.63;;;0.50;;
45650;SDS011;31365;48.858;8.530;2023-01-09T08:18:07;2.07;;;0.70;;
45650;SDS011;31365;48.858;8.530;2023-01-09T08:20:35;4.57;;;1.00;;
45650;SDS011;31365;48.858;8.530;2023-01-09T08:23:04;1.90;;;0.60;;
45650;SDS011;31365;48.858;8.530;2023-01-09T08:25:32;2.20;;;0.90;;
45650;SDS011;31365;48.858;8.530;2023-01-09T08:28:02;1.93;;;1.00;;
45650;SDS011;31365;48.858;8.530;2023-01-09T08:30:30;2.23;;;0.63;;
45650;SDS011;31365;48.858;8.530;2023-01-09T08:32:59;3.10;;;0.77;;
45650;SDS011;31365;48.858;8.530;2023-01-09T08:35:27;3.63;;;1.40;;
45650;SDS011;31365;48.858;8.530;2023-01-09T08:37:56;2.70;;;0.97;;
45650;SDS011;31365;48.858;8.530;2023-01-09T08:40:24;3.13;;;1.37;;
45650;SDS011;31365;48.858;8.530;2023-01-09T08:42:53;3.60;;;2.47;;
45650;SDS011;31365;48.858;8.530;2023-01-09T08:45:55;5.37;;;2.53;;
45650;SDS011;31365;48.858;8.530;2023-01-09T08:48:41;4.73;;;2.60;;
45650;SDS011;31365;48.858;8.530;2023-01-09T08:51:10;3.77;;;1.73;;
45650;SDS011;31365;48.858;8.530;2023-01-09T08:53:38;1.93;;;1.20;;
45650;SDS011;31365;48.858;8.530;2023-01-09T08:56:07;1.83;;;1.10;;
45650;SDS011;31365;48.858;8.530;2023-01-09T08:58:35;2.13;;;0.80;;
45650;SDS011;31365;48.858;8.530;2023-01-09T09:01:06;1.63;;;0.53;;
45650;SDS011;31365;48.858;8.530;2023-01-09T09:03:35;1.67;;;0.70;;
45650;SDS011;31365;48.858;8.530;2023-01-09T09:06:03;2.73;;;1.13;;
45650;SDS011;31365;48.858;8.530;2023-01-09T09:08:32;2.57;;;1.37;;
45650;SDS011;31365;48.858;8.530;2023-01-09T09:11:01;4.97;;;2.70;;
45650;SDS011;31365;48.858;8.530;2023-01-09T09:13:29;3.83;;;1.33;;
45650;SDS011;31365;48.858;8.530;2023-01-09T09:15:57;6.13;;;1.50;;
45650;SDS011;31365;48.858;8.530;2023-01-09T09:18:27;2.77;;;1.20;;
45650;SDS011;31365;48.858;8.530;2023-01-09T09:20:56;4.83;;;1.80;;
45650;SDS011;31365;48.858;8.530;2023-01-09T09:23:24;2.70;;;1.70;;
45650;SDS011;31365;48.858;8.530;2023-01-09T09:25:52;5.47;;;2.37;;
45650;SDS011;31365;48.858;8.530;2023-01-09T09:28:21;8.90;;;5.10;;
45650;SDS011;31365;48.858;8.530;2023-01-09T09:30:50;2.20;;;1.80;;
45650;SDS011;31365;48.858;8.530;2023-01-09T09:33:18;4.07;;;1.33;;
45650;SDS011;31365;48.858;8.530;2023-01-09T09:35:48;3.03;;;1.90;;
45650;SDS011;31365;48.858;8.530;2023-01-09T09:38:16;2.40;;;1.27;;
45650;SDS011;31365;48.858;8.530;2023-01-09T09:40:53;1.70;;;0.83;;
45650;SDS011;31365;48.858;8.530;2023-01-09T09:44:03;2.00;;;0.97;;
45650;SDS011;31365;48.858;8.530;2023-01-09T09:47:29;1.43;;;1.07;;
45650;SDS011;31365;48.858;8.530;2023-01-09T09:50:18;2.47;;;0.40;;
45650;SDS011;31365;48.858;8.530;2023-01-09T09:53:08;3.33;;;1.10;;
45650;SDS011;31365;48.858;8.530;2023-01-09T09:55:45;2.80;;;0.83;;
45650;SDS011;31365;48.858;8.530;2023-01-09T09:58:19;1.23;;;0.73;;
45650;SDS011;31365;48.858;8.530;2023-01-09T10:00:56;2.40;;;0.90;;
45650;SDS011;31365;48.858;8.530;2023-01-09T10:03:30;1.23;;;0.87;;
45650;SDS011;31365;48.858;8.530;2023-01-09T10:06:04;3.40;;;1.50;;
45650;SDS011;31365;48.858;8.530;2023-01-09T10:08:44;2.47;;;1.27;;
45650;SDS011;31365;48.858;8.530;2023-01-09T10:11:21;2.67;;;0.87;;
45650;SDS011;31365;48.858;8.530;2023-01-09T10:13:59;1.20;;;1.00;;
45650;SDS011;31365;48.858;8.530;2023-01-09T10:16:56;3.13;;;1.00;;
45650;SDS011;31365;48.858;8.530;2023-01-09T10:19:43;2.33;;;1.17;;
45650;SDS011;31365;48.858;8.530;2023-01-09T10:22:36;1.60;;;0.90;;
45650;SDS011;31365;48.858;8.530;2023-01-09T10:25:21;2.77;;;1.00;;
45650;SDS011;31365;48.858;8.530;2023-01-09T10:28:01;1.07;;;0.70;;
45650;SDS011;31365;48.858;8.530;2023-01-09T10:30:49;2.33;;;1.10;;
45650;SDS011;31365;48.858;8.530;2023-01-09T10:33:36;1.53;;;1.13;;
45650;SDS011;31365;48.858;8.530;2023-01-09T10:36:25;1.73;;;1.07;;
45650;SDS011;31365;48.858;8.530;2023-01-09T10:39:26;2.33;;;1.23;;
45650;SDS011;31365;48.858;8.530;2023-01-09T10:42:07;1.23;;;0.60;;
45650;SDS011;31365;48.858;8.530;2023-01-09T10:44:47;3.20;;;0.40;;
45650;SDS011;31365;48.858;8.530;2023-01-09T10:47:24;3.90;;;1.80;;
45650;SDS011;31365;48.858;8.530;2023-01-09T10:49:58;2.10;;;1.33;;
45650;SDS011;31365;48.858;8.530;2023-01-09T10:52:44;1.27;;;0.90;;
45650;SDS011;31365;48.858;8.530;2023-01-09T10:55:17;3.77;;;1.20;;
45650;SDS011;31365;48.858;8.530;2023-01-09T10:57:57;2.50;;;0.90;;
45650;SDS011;31365;48.858;8.530;2023-01-09T11:00:35;3.87;;;0.87;;
45650;SDS011;31365;48.858;8.530;2023-01-09T11:03:09;1.53;;;1.33;;
45650;SDS011;31365;48.858;8.530;2023-01-09T11:05:40;1.90;;;1.40;;
45650;SDS011;31365;48.858;8.530;2023-01-09T11:08:11;1.53;;;1.07;;
45650;SDS011;31365;48.858;8.530;2023-01-09T11:10:51;1.83;;;1.17;;
45650;SDS011;31365;48.858;8.530;2023-01-09T11:13:24;1.70;;;1.23;;
45650;SDS011;31365;48.858;8.530;2023-01-09T11:16:00;3.03;;;1.70;;
45650;SDS011;31365;48.858;8.530;2023-01-09T11:18:33;2.93;;;1.50;;
45650;SDS011;31365;48.858;8.530;2023-01-09T11:21:13;1.80;;;1.53;;
45650;SDS011;31365;48.858;8.530;2023-01-09T11:24:17;1.47;;;1.27;;
45650;SDS011;31365;48.858;8.530;2023-01-09T11:32:45;1.37;;;0.90;;
45650;SDS011;31365;48.858;8.530;2023-01-09T11:35:17;1.77;;;1.07;;
45650;SDS011;31365;48.858;8.530;2023-01-09T11:37:49;1.73;;;0.90;;
45650;SDS011;31365;48.858;8.530;2023-01-09T11:40:32;1.67;;;0.97;;
45650;SDS011;31365;48.858;8.530;2023-01-09T11:43:13;1.20;;;0.87;;
45650;SDS011;31365;48.858;8.530;2023-01-09T11:45:49;3.13;;;1.13;;
45650;SDS011;31365;48.858;8.530;2023-01-09T11:48:28;2.07;;;0.80;;
45650;SDS011;31365;48.858;8.530;2023-01-09T11:51:04;1.93;;;0.60;;
45650;SDS011;31365;48.858;8.530;2023-01-09T11:53:52;1.80;;;0.90;;
45650;SDS011;31365;48.858;8.530;2023-01-09T11:56:41;1.77;;;0.43;;
45650;SDS011;31365;48.858;8.530;2023-01-09T11:59:12;2.37;;;0.60;;
45650;SDS011;31365;48.858;8.530;2023-01-09T12:01:55;2.53;;;0.67;;
45650;SDS011;31365;48.858;8.530;2023-01-09T12:05:00;2.57;;;0.90;;
45650;SDS011;31365;48.858;8.530;2023-01-09T12:10:53;3.83;;;1.33;;
45650;SDS011;31365;48.858;8.530;2023-01-09T12:13:57;2.20;;;1.03;;
45650;SDS011;31365;48.858;8.530;2023-01-09T12:16:59;2.20;;;1.03;;
45650;SDS011;31365;48.858;8.530;2023-01-09T12:20:31;2.30;;;1.37;;
45650;SDS011;31365;48.858;8.530;2023-01-09T12:23:23;1.47;;;1.10;;
45650;SDS011;31365;48.858;8.530;2023-01-09T12:26:11;1.90;;;0.87;;
45650;SDS011;31365;48.858;8.530;2023-01-09T12:34:59;4.50;;;1.50;;
45650;SDS011;31365;48.858;8.530;2023-01-09T12:37:48;3.93;;;1.23;;
45650;SDS011;31365;48.858;8.530;2023-01-09T12:40:57;2.87;;;1.30;;
45650;SDS011;31365;48.858;8.530;2023-01-09T12:43:44;5.23;;;2.87;;
45650;SDS011;31365;48.858;8.530;2023-01-09T12:46:28;13.23;;;6.00;;
45650;SDS011;31365;48.858;8.530;2023-01-09T12:49:17;5.57;;;3.20;;
45650;SDS011;31365;48.858;8.530;2023-01-09T12:51:58;5.93;;;3.07;;
45650;SDS011;31365;48.858;8.530;2023-01-09T12:54:37;2.27;;;1.40;;
45650;SDS011;31365;48.858;8.530;2023-01-09T12:57:14;3.67;;;1.20;;
45650;SDS011;31365;48.858;8.530;2023-01-09T12:59:49;2.03;;;1.50;;
45650;SDS011;31365;48.858;8.530;2023-01-09T13:02:22;7.63;;;1.63;;
45650;SDS011;31365;48.858;8.530;2023-01-09T13:05:01;1.33;;;0.70;;
45650;SDS011;31365;48.858;8.530;2023-01-09T13:07:37;1.23;;;0.60;;
45650;SDS011;31365;48.858;8.530;2023-01-09T13:10:14;2.83;;;1.90;;
45650;SDS011;31365;48.858;8.530;2023-01-09T13:12:50;1.37;;;0.80;;
45650;SDS011;31365;48.858;8.530;2023-01-09T13:15:24;4.30;;;1.70;;
45650;SDS011;31365;48.858;8.530;2023-01-09T13:17:59;2.50;;;1.70;;
45650;SDS011;31365;48.858;8.530;2023-01-09T13:20:37;3.10;;;1.60;;
45650;SDS011;31365;48.858;8.530;2023-01-09T13:23:11;1.73;;;1.43;;
45650;SDS011;31365;48.858;8.530;2023-01-09T13:25:52;1.50;;;1.00;;
45650;SDS011;31365;48.858;8.530;2023-01-09T13:28:25;2.83;;;1.90;;
45650;SDS011;31365;48.858;8.530;2023-01-09T13:31:02;1.40;;;0.70;;
45650;SDS011;31365;48.858;8.530;2023-01-09T13:33:52;3.33;;;0.83;;
45650;SDS011;31365;48.858;8.530;2023-01-09T13:36:27;0.83;;;0.83;;
45650;SDS011;31365;48.858;8.530;2023-01-09T13:39:00;1.23;;;0.80;;
45650;SDS011;31365;48.858;8.530;2023-01-09T13:41:29;1.90;;;0.70;;
45650;SDS011;31365;48.858;8.530;2023-01-09T13:44:20;1.93;;;0.80;;
45650;SDS011;31365;48.858;8.530;2023-01-09T13:46:54;1.77;;;0.70;;
45650;SDS011;31365;48.858;8.530;2023-01-09T13:49:28;2.37;;;0.60;;
45650;SDS011;31365;48.858;8.530;2023-01-09T13:52:35;1.40;;;1.07;;
45650;SDS011;31365;48.858;8.530;2023-01-09T13:58:17;2.53;;;0.73;;
45650;SDS011;31365;48.858;8.530;2023-01-09T14:00:58;2.07;;;1.00;;
45650;SDS011;31365;48.858;8.530;2023-01-09T14:03:30;4.20;;;1.10;;
45650;SDS011;31365;48.858;8.530;2023-01-09T14:06:09;1.10;;;0.97;;
45650;SDS011;31365;48.858;8.530;2023-01-09T14:09:03;1.30;;;0.90;;
45650;SDS011;31365;48.858;8.530;2023-01-09T14:11:43;3.13;;;1.20;;
45650;SDS011;31365;48.858;8.530;2023-01-09T14:14:24;2.07;;;1.00;;
45650;SDS011;31365;48.858;8.530;2023-01-09T14:16:58;2.20;;;0.90;;
45650;SDS011;31365;48.858;8.530;2023-01-09T14:19:32;2.37;;;1.10;;
45650;SDS011;31365;48.858;8.530;2023-01-09T14:22:04;1.50;;;1.10;;
45650;SDS011;31365;48.858;8.530;2023-01-09T14:24:39;4.33;;;1.10;;
45650;SDS011;31365;48.858;8.530;2023-01-09T14:34:06;2.67;;;1.63;;
45650;SDS011;31365;48.858;8.530;2023-01-09T14:36:57;3.63;;;1.43;;
45650;SDS011;31365;48.858;8.530;2023-01-09T14:39:28;2.83;;;1.27;;
45650;SDS011;31365;48.858;8.530;2023-01-09T14:42:02;4.80;;;3.03;;
45650;SDS011;31365;48.858;8.530;2023-01-09T14:44:44;5.93;;;2.90;;
45650;SDS011;31365;48.858;8.530;2023-01-09T14:47:18;4.33;;;1.77;;
45650;SDS011;31365;48.858;8.530;2023-01-09T14:50:01;3.43;;;2.37;;
45650;SDS011;31365;48.858;8.530;2023-01-09T14:52:39;3.90;;;3.50;;
45650;SDS011;31365;48.858;8.530;2023-01-09T14:55:16;4.60;;;2.53;;
45650;SDS011;31365;48.858;8.530;2023-01-09T14:57:54;1.47;;;1.37;;
45650;SDS011;31365;48.858;8.530;2023-01-09T15:00:23;4.53;;;3.20;;
45650;SDS011;31365;48.858;8.530;2023-01-09T15:02:51;1.40;;;0.57;;
45650;SDS011;31365;48.858;8.530;2023-01-09T15:05:21;5.87;;;1.20;;
45650;SDS011;31365;48.858;8.530;2023-01-09T15:07:57;1.70;;;1.03;;
45650;SDS011;31365;48.858;8.530;2023-01-09T15:10:30;1.63;;;0.90;;
45650;SDS011;31365;48.858;8.530;2023-01-09T15:13:05;1.73;;;1.23;;
45650;SDS011;31365;48.858;8.530;2023-01-09T15:15:43;5.23;;;1.30;;
45650;SDS011;31365;48.858;8.530;2023-01-09T15:18:17;2.97;;;1.50;;
45650;SDS011;31365;48.858;8.530;2023-01-09T15:20:51;2.23;;;1.30;;
45650;SDS011;31365;48.858;8.530;2023-01-09T15:23:26;11.40;;;3.37;;
45650;SDS011;31365;48.858;8.530;2023-01-09T15:25:58;2.83;;;1.43;;
45650;SDS011;31365;48.858;8.530;2023-01-09T15:28:42;5.87;;;1.97;;
45650;SDS011;31365;48.858;8.530;2023-01-09T15:31:12;3.07;;;2.60;;
45650;SDS011;31365;48.858;8.530;2023-01-09T15:33:44;3.73;;;2.27;;
45650;SDS011;31365;48.858;8.530;2023-01-09T15:36:16;2.73;;;1.97;;
45650;SDS011;31365;48.858;8.530;2023-01-09T15:38:50;2.00;;;1.70;;
45650;SDS011;31365;48.858;8.530;2023-01-09T15:41:22;12.70;;;8.47;;
45650;SDS011;31365;48.858;8.530;2023-01-09T15:44:13;8.70;;;3.67;;
45650;SDS011;31365;48.858;8.530;2023-01-09T15:46:47;2.97;;;2.47;;
45650;SDS011;31365;48.858;8.530;2023-01-09T15:49:17;5.33;;;3.47;;
45650;SDS011;31365;48.858;8.530;2023-01-09T15:51:46;3.73;;;1.50;;
45650;SDS011;31365;48.858;8.530;2023-01-09T15:54:17;2.53;;;1.43;;
45650;SDS011;31365;48.858;8.530;2023-01-09T16:05:53;2.10;;;1.33;;
45650;SDS011;31365;48.858;8.530;2023-01-09T16:08:32;3.63;;;1.13;;
45650;SDS011;31365;48.858;8.530;2023-01-09T16:11:05;2.23;;;0.97;;
45650;SDS011;31365;48.858;8.530;2023-01-09T16:13:46;1.90;;;1.07;;
45650;SDS011;31365;48.858;8.530;2023-01-09T16:16:22;2.50;;;1.10;;
45650;SDS011;31365;48.858;8.530;2023-01-09T16:18:54;3.27;;;1.30;;
45650;SDS011;31365;48.858;8.530;2023-01-09T16:21:30;3.37;;;3.03;;
45650;SDS011;31365;48.858;8.530;2023-01-09T16:24:02;0.70;;;0.70;;
45650;SDS011;31365;48.858;8.530;2023-01-09T16:26:51;3.33;;;2.43;;
45650;SDS011;31365;48.858;8.530;2023-01-09T16:29:38;8.43;;;3.90;;
45650;SDS011;31365;48.858;8.530;2023-01-09T16:32:18;3.53;;;2.23;;
45650;SDS011;31365;48.858;8.530;2023-01-09T16:34:53;2.37;;;2.10;;
45650;SDS011;31365;48.858;8.530;2023-01-09T16:37:25;6.63;;;3.60;;
45650;SDS011;31365;48.858;8.530;2023-01-09T16:42:50;4.17;;;2.70;;
45650;SDS011;31365;48.858;8.530;2023-01-09T16:45:27;2.83;;;2.13;;
45650;SDS011;31365;48.858;8.530;2023-01-09T16:48:01;4.80;;;2.80;;
45650;SDS011;31365;48.858;8.530;2023-01-09T16:50:38;8.60;;;4.40;;
45650;SDS011;31365;48.858;8.530;2023-01-09T16:53:09;6.93;;;5.37;;